createdAt,value
2017-03-18T00:00:24.784Z,729.84
2017-03-18T00:01:24.766Z,729.71
2017-03-18T00:02:24.747Z,729.72
2017-03-18T00:03:24.733Z,730.16
2017-03-18T00:04:24.713Z,729.7
2017-03-18T00:05:24.692Z,730.01
2017-03-18T00:06:24.673Z,730.05
2017-03-18T00:07:24.651Z,729.81
2017-03-18T00:08:24.633Z,729.65
2017-03-18T00:09:24.618Z,729.65
2017-03-18T00:10:24.598Z,729.73
2017-03-18T00:11:24.575Z,729.73
2017-03-18T00:12:24.561Z,729.7
2017-03-18T00:13:24.537Z,729.57
2017-03-18T00:14:24.523Z,729.97
2017-03-18T00:15:24.503Z,729.81
2017-03-18T00:16:24.484Z,729.44
2017-03-18T00:17:24.466Z,729.34
2017-03-18T00:18:24.443Z,729.38
2017-03-18T00:19:24.428Z,729.51
2017-03-18T00:20:24.407Z,729.57
2017-03-18T00:21:24.386Z,729.64
2017-03-18T00:22:24.365Z,729.53
2017-03-18T00:23:24.350Z,729.66
2017-03-18T00:24:24.327Z,729.73
2017-03-18T00:25:24.308Z,729.4
2017-03-18T00:26:24.292Z,729.52
2017-03-18T00:27:24.271Z,729.73
2017-03-18T00:28:24.250Z,729.88
2017-03-18T00:29:24.233Z,729.74
2017-03-18T00:30:24.212Z,729.49
2017-03-18T00:31:24.193Z,729.58
2017-03-18T00:32:24.175Z,729.74
2017-03-18T00:33:24.159Z,729.36
2017-03-18T00:34:24.137Z,729.72
2017-03-18T00:35:24.116Z,729.71
2017-03-18T00:36:24.097Z,729.86
2017-03-18T00:37:24.083Z,729.48
2017-03-18T00:38:24.064Z,729.54
2017-03-18T00:39:24.040Z,729.01
2017-03-18T00:40:24.024Z,729.11
2017-03-18T00:41:24.004Z,729.5
2017-03-18T00:42:23.986Z,729.34
2017-03-18T00:43:23.964Z,729.27
2017-03-18T00:44:23.942Z,729.48
2017-03-18T00:45:23.926Z,729.48
2017-03-18T00:46:23.907Z,729.64
2017-03-18T00:47:23.887Z,729.47
2017-03-18T00:48:23.869Z,729.39
2017-03-18T00:49:23.847Z,729.34
2017-03-18T00:50:23.827Z,729.17
2017-03-18T00:51:23.805Z,729.09
2017-03-18T00:52:23.787Z,729.35
2017-03-18T00:53:23.773Z,729.22
2017-03-18T00:54:23.754Z,729.19
2017-03-18T00:55:23.733Z,729.14
2017-03-18T00:56:23.711Z,729.19
2017-03-18T00:57:23.695Z,729.17
2017-03-18T00:58:23.676Z,729.29
2017-03-18T00:59:23.657Z,729.23
2017-03-18T01:00:23.634Z,729.17
2017-03-18T01:01:23.619Z,729.21
2017-03-18T01:02:23.596Z,729.31
2017-03-18T01:03:23.581Z,729.51
2017-03-18T01:04:23.560Z,729.39
2017-03-18T01:05:23.544Z,729.15
2017-03-18T01:06:23.520Z,729.12
2017-03-18T01:07:23.505Z,729.37
2017-03-18T01:08:23.483Z,729.29
2017-03-18T01:09:23.468Z,729.05
2017-03-18T01:10:23.445Z,728.88
2017-03-18T01:11:23.429Z,729.29
2017-03-18T01:12:23.408Z,729.2
2017-03-18T01:13:23.391Z,729
2017-03-18T01:14:23.372Z,728.87
2017-03-18T01:15:23.349Z,728.89
2017-03-18T01:16:23.329Z,729.36
2017-03-18T01:17:23.314Z,729.54
2017-03-18T01:18:23.295Z,729.03
2017-03-18T01:19:23.273Z,728.74
2017-03-18T01:20:23.251Z,729.13
2017-03-18T01:21:23.434Z,729.14
2017-03-18T01:22:23.214Z,728.97
2017-03-18T01:24:23.178Z,729.02
2017-03-18T01:25:23.156Z,728.9
2017-03-18T01:26:23.140Z,729.37
2017-03-18T01:27:23.156Z,728.88
2017-03-18T01:28:23.102Z,728.93
2017-03-18T01:29:23.083Z,728.91
2017-03-18T01:30:23.061Z,728.98
2017-03-18T01:31:23.046Z,729.17
2017-03-18T01:32:23.021Z,729.29
2017-03-18T01:33:23.002Z,728.98
2017-03-18T01:34:22.990Z,728.85
2017-03-18T01:35:22.964Z,728.77
2017-03-18T01:36:22.948Z,729.08
2017-03-18T01:37:22.926Z,728.72
2017-03-18T01:38:22.911Z,728.89
2017-03-18T01:39:22.886Z,728.95
2017-03-18T01:40:22.867Z,728.89
2017-03-18T01:41:22.850Z,728.72
2017-03-18T01:42:22.829Z,728.55
2017-03-18T01:43:22.810Z,728.98
2017-03-18T01:44:22.790Z,729.01
2017-03-18T01:45:22.773Z,728.66
2017-03-18T01:46:22.755Z,728.42
2017-03-18T01:47:22.734Z,728.84
2017-03-18T01:48:22.714Z,729.07
2017-03-18T01:49:22.697Z,728.63
2017-03-18T01:50:22.677Z,728.89
2017-03-18T01:51:22.660Z,728.47
2017-03-18T01:52:22.641Z,728.31
2017-03-18T01:53:22.623Z,728.43
2017-03-18T01:54:22.599Z,728.43
2017-03-18T01:55:22.580Z,728.43
2017-03-18T01:56:22.561Z,728.73
2017-03-18T01:57:22.545Z,728.97
2017-03-18T01:58:22.527Z,729.01
2017-03-18T01:59:22.508Z,728.63
2017-03-18T02:00:22.485Z,728.55
2017-03-18T02:01:22.469Z,728.34
2017-03-18T02:02:22.448Z,728.58
2017-03-18T02:03:22.427Z,728.5
2017-03-18T02:04:22.409Z,728.82
2017-03-18T02:05:22.390Z,728.45
2017-03-18T02:06:22.373Z,728.38
2017-03-18T02:07:22.353Z,728.1
2017-03-18T02:08:22.336Z,728.41
2017-03-18T02:09:22.317Z,728.76
2017-03-18T02:10:22.298Z,728.53
2017-03-18T02:11:22.275Z,728.42
2017-03-18T02:12:22.258Z,728.44
2017-03-18T02:13:22.239Z,728.85
2017-03-18T02:14:22.218Z,727.58
2017-03-18T02:15:22.202Z,728.65
2017-03-18T02:16:22.180Z,728.2
2017-03-18T02:17:22.165Z,728.24
2017-03-18T02:18:22.141Z,728.35
2017-03-18T02:19:22.127Z,728.62
2017-03-18T02:20:22.107Z,728.39
2017-03-18T02:21:22.089Z,728.79
2017-03-18T02:22:22.068Z,728.43
2017-03-18T02:23:22.047Z,728.08
2017-03-18T02:24:22.031Z,728.42
2017-03-18T02:25:22.014Z,728.39
2017-03-18T02:26:21.993Z,728.37
2017-03-18T02:27:21.973Z,728.1
2017-03-18T02:28:21.959Z,728.34
2017-03-18T02:29:21.936Z,728.24
2017-03-18T02:30:21.917Z,728.14
2017-03-18T02:31:21.894Z,728.16
2017-03-18T02:32:21.875Z,728.42
2017-03-18T02:33:21.860Z,727.96
2017-03-18T02:34:21.843Z,728.3
2017-03-18T02:35:21.819Z,728.42
2017-03-18T02:36:21.804Z,728.31
2017-03-18T02:37:21.785Z,728.33
2017-03-18T02:38:21.764Z,728.16
2017-03-18T02:39:21.745Z,728.06
2017-03-18T02:40:21.724Z,728.11
2017-03-18T02:41:21.707Z,728.16
2017-03-18T02:42:21.689Z,728.07
2017-03-18T02:43:21.667Z,728.15
2017-03-18T02:44:21.658Z,728.29
2017-03-18T02:45:21.632Z,728.4
2017-03-18T02:46:21.614Z,728.56
2017-03-18T02:47:21.592Z,728.23
2017-03-18T02:48:21.572Z,728.28
2017-03-18T02:49:21.553Z,728.25
2017-03-18T02:50:21.534Z,728.06
2017-03-18T02:51:21.515Z,727.94
2017-03-18T02:52:21.495Z,727.85
2017-03-18T02:53:21.481Z,727.92
2017-03-18T02:54:21.459Z,728.29
2017-03-18T02:55:21.439Z,728.74
2017-03-18T02:56:21.420Z,727.51
2017-03-18T02:57:21.401Z,727.67
2017-03-18T02:59:21.367Z,727.68
2017-03-18T03:00:21.344Z,728.2
2017-03-18T03:01:21.325Z,727.94
2017-03-18T03:02:21.311Z,727.94
2017-03-18T03:03:21.289Z,728.61
2017-03-18T03:04:21.269Z,728.28
2017-03-18T03:05:21.250Z,727.65
2017-03-18T03:06:21.230Z,728.05
2017-03-18T03:07:21.222Z,728.07
2017-03-18T03:08:21.192Z,728.15
2017-03-18T03:09:21.178Z,727.82
2017-03-18T03:10:21.157Z,727.96
2017-03-18T03:11:21.134Z,727.77
2017-03-18T03:12:21.127Z,728.19
2017-03-18T03:13:21.097Z,728.04
2017-03-18T03:14:21.081Z,727.96
2017-03-18T03:15:21.072Z,727.89
2017-03-18T03:16:21.043Z,727.72
2017-03-18T03:17:21.028Z,727.79
2017-03-18T03:18:21.004Z,727.61
2017-03-18T03:19:20.983Z,727.62
2017-03-18T03:20:20.963Z,727.69
2017-03-18T03:21:20.948Z,727.8
2017-03-18T03:22:20.925Z,728
2017-03-18T03:23:20.908Z,727.74
2017-03-18T03:24:20.889Z,726.96
2017-03-18T03:25:20.873Z,727.29
2017-03-18T03:26:20.855Z,727.76
2017-03-18T03:27:20.832Z,727.73
2017-03-18T03:28:20.817Z,727.74
2017-03-18T03:29:20.793Z,728.08
2017-03-18T03:30:20.775Z,726.85
2017-03-18T03:31:20.757Z,727.37
2017-03-18T03:32:20.741Z,727.78
2017-03-18T03:33:20.718Z,727.89
2017-03-18T03:34:20.700Z,727.74
2017-03-18T03:35:20.681Z,728.21
2017-03-18T03:36:20.661Z,727.68
2017-03-18T03:37:20.642Z,727.59
2017-03-18T03:38:20.625Z,727.35
2017-03-18T03:39:20.609Z,727.76
2017-03-18T03:40:20.590Z,727.83
2017-03-18T03:41:20.566Z,727.59
2017-03-18T03:42:20.554Z,727.63
2017-03-18T03:43:20.531Z,727.95
2017-03-18T03:44:20.509Z,728.02
2017-03-18T03:45:20.490Z,727.21
2017-03-18T03:46:20.471Z,727.17
2017-03-18T03:47:20.459Z,727.36
2017-03-18T03:48:20.439Z,727.74
2017-03-18T03:49:20.416Z,728.02
2017-03-18T03:50:20.400Z,727.93
2017-03-18T03:51:20.380Z,728.13
2017-03-18T03:52:20.358Z,727.62
2017-03-18T03:53:20.340Z,727.34
2017-03-18T03:54:20.321Z,727.34
2017-03-18T03:55:20.304Z,727.73
2017-03-18T03:56:20.285Z,728.04
2017-03-18T03:57:20.261Z,727.66
2017-03-18T03:58:20.246Z,727.08
2017-03-18T03:59:20.226Z,727.7
2017-03-18T04:00:20.210Z,727.66
2017-03-18T04:01:20.190Z,727.46
2017-03-18T04:02:20.172Z,727.64
2017-03-18T04:03:20.152Z,727.53
2017-03-18T04:04:20.140Z,727.72
2017-03-18T04:05:20.111Z,727.89
2017-03-18T04:06:20.090Z,726.91
2017-03-18T04:07:20.076Z,726.81
2017-03-18T04:08:20.052Z,727.34
2017-03-18T04:09:20.034Z,727.29
2017-03-18T04:10:20.015Z,727.63
2017-03-18T04:11:20.000Z,727.44
2017-03-18T04:12:19.980Z,727.86
2017-03-18T04:13:19.961Z,727.09
2017-03-18T04:14:19.942Z,727.11
2017-03-18T04:15:19.918Z,727.86
2017-03-18T04:16:19.902Z,727.79
2017-03-18T04:17:19.885Z,727.76
2017-03-18T04:18:19.866Z,727.5
2017-03-18T04:19:19.841Z,727.54
2017-03-18T04:20:19.826Z,727.92
2017-03-18T04:21:19.804Z,727.2
2017-03-18T04:22:19.789Z,727.62
2017-03-18T04:23:19.765Z,726.98
2017-03-18T04:24:19.745Z,727.35
2017-03-18T04:25:19.726Z,727.61
2017-03-18T04:26:19.712Z,728.05
2017-03-18T04:27:19.691Z,727.6
2017-03-18T04:28:19.670Z,727.71
2017-03-18T04:29:19.650Z,727.76
2017-03-18T04:30:19.634Z,727.56
2017-03-18T04:31:19.615Z,727.62
2017-03-18T04:32:19.592Z,727.87
2017-03-18T04:33:19.573Z,727.42
2017-03-18T04:34:19.554Z,727.91
2017-03-18T04:35:19.535Z,727.51
2017-03-18T04:36:19.520Z,727.8
2017-03-18T04:37:19.498Z,727.53
2017-03-18T04:38:19.478Z,727.41
2017-03-18T04:39:19.463Z,727.41
2017-03-18T04:40:19.445Z,727.52
2017-03-18T04:41:19.421Z,727.58
2017-03-18T04:42:19.406Z,727.45
2017-03-18T04:43:19.388Z,727.02
2017-03-18T04:44:19.369Z,727.39
2017-03-18T04:45:19.344Z,727.55
2017-03-18T04:46:19.326Z,727.66
2017-03-18T04:47:19.315Z,727.61
2017-03-18T04:48:19.293Z,727.58
2017-03-18T04:49:19.273Z,727.43
2017-03-18T04:50:19.250Z,727.56
2017-03-18T04:51:19.231Z,727.3
2017-03-18T04:52:19.211Z,727.32
2017-03-18T04:53:19.197Z,727.67
2017-03-18T04:54:19.179Z,727.6
2017-03-18T04:55:19.159Z,727.59
2017-03-18T04:56:19.140Z,727.64
2017-03-18T04:57:19.121Z,727.52
2017-03-18T04:58:19.099Z,727.13
2017-03-18T04:59:19.081Z,727.27
2017-03-18T05:00:19.060Z,727.13
2017-03-18T05:01:19.041Z,727.17
2017-03-18T05:02:19.026Z,727.51
2017-03-18T05:03:19.006Z,727.67
2017-03-18T05:04:18.987Z,727.66
2017-03-18T05:05:18.968Z,727.52
2017-03-18T05:06:18.948Z,727.73
2017-03-18T05:07:18.926Z,727.57
2017-03-18T05:08:18.906Z,727.52
2017-03-18T05:09:18.888Z,727.52
2017-03-18T05:10:18.872Z,727.5
2017-03-18T05:11:18.847Z,727.6
2017-03-18T05:12:18.828Z,727.76
2017-03-18T05:13:18.816Z,727.5
2017-03-18T05:14:18.792Z,727.8
2017-03-18T05:15:18.773Z,727.71
2017-03-18T05:16:18.752Z,727.71
2017-03-18T05:17:18.736Z,727.66
2017-03-18T05:18:18.712Z,727.75
2017-03-18T05:19:18.693Z,727.41
2017-03-18T05:20:18.674Z,727.28
2017-03-18T05:21:18.654Z,727.08
2017-03-18T05:22:18.635Z,727.72
2017-03-18T05:23:18.616Z,727.13
2017-03-18T05:24:18.598Z,727.44
2017-03-18T05:25:18.581Z,727.75
2017-03-18T05:26:18.559Z,727.35
2017-03-18T05:27:18.543Z,726.92
2017-03-18T05:28:18.519Z,727.34
2017-03-18T05:29:18.499Z,727.63
2017-03-18T05:30:18.484Z,727.72
2017-03-18T05:31:18.465Z,727.33
2017-03-18T05:32:18.445Z,727.54
2017-03-18T05:33:18.422Z,727.5
2017-03-18T05:34:18.407Z,727.43
2017-03-18T05:35:18.388Z,727.25
2017-03-18T05:36:18.368Z,727.52
2017-03-18T05:37:18.345Z,727.85
2017-03-18T05:38:18.329Z,727.23
2017-03-18T05:39:18.310Z,727.6
2017-03-18T05:40:18.289Z,727.51
2017-03-18T05:41:18.266Z,727.48
2017-03-18T05:42:18.246Z,727.82
2017-03-18T05:43:18.231Z,727.88
2017-03-18T05:44:18.212Z,727.52
2017-03-18T05:45:18.189Z,727.77
2017-03-18T05:46:18.168Z,727.51
2017-03-18T05:47:18.153Z,727.41
2017-03-18T05:48:18.134Z,727.77
2017-03-18T05:49:18.110Z,727.71
2017-03-18T05:50:18.091Z,727.75
2017-03-18T05:51:18.074Z,727.65
2017-03-18T05:52:18.051Z,727.58
2017-03-18T05:53:18.036Z,727.29
2017-03-18T05:54:18.014Z,727.57
2017-03-18T05:55:17.994Z,727.54
2017-03-18T05:56:17.971Z,727.55
2017-03-18T05:57:17.953Z,727.7
2017-03-18T05:58:17.937Z,727.43
2017-03-18T05:59:17.916Z,727.25
2017-03-18T06:00:17.895Z,727.74
2017-03-18T06:01:17.904Z,727.41
2017-03-18T06:02:17.852Z,727.54
2017-03-18T06:03:17.835Z,727.63
2017-03-18T06:04:17.812Z,727.58
2017-03-18T06:05:17.795Z,727.55
2017-03-18T06:06:17.772Z,727.71
2017-03-18T06:07:17.756Z,727.42
2017-03-18T06:08:17.733Z,727.69
2017-03-18T06:09:17.712Z,727.62
2017-03-18T06:10:17.695Z,727.36
2017-03-18T06:11:17.675Z,727.63
2017-03-18T06:12:17.655Z,727.74
2017-03-18T06:13:17.635Z,727.51
2017-03-18T06:14:17.614Z,727.6
2017-03-18T06:15:17.591Z,727.71
2017-03-18T06:16:17.574Z,727.79
2017-03-18T06:17:17.550Z,727.64
2017-03-18T06:18:17.534Z,727.51
2017-03-18T06:19:17.515Z,726.86
2017-03-18T06:20:17.489Z,727.47
2017-03-18T06:21:17.469Z,727.3
2017-03-18T06:22:17.448Z,727.12
2017-03-18T06:23:17.428Z,727.57
2017-03-18T06:24:17.410Z,727.19
2017-03-18T06:25:17.392Z,727.09
2017-03-18T06:26:17.369Z,726.57
2017-03-18T06:27:17.348Z,726.99
2017-03-18T06:28:17.326Z,727.16
2017-03-18T06:29:17.309Z,726.81
2017-03-18T06:30:17.291Z,726.95
2017-03-18T06:31:17.270Z,727.36
2017-03-18T06:32:17.246Z,727.24
2017-03-18T06:33:17.230Z,727.24
2017-03-18T06:34:17.206Z,727.08
2017-03-18T06:35:17.188Z,727.25
2017-03-18T06:36:17.165Z,727.27
2017-03-18T06:37:17.149Z,727.23
2017-03-18T06:38:17.129Z,727.08
2017-03-18T06:39:17.103Z,727.29
2017-03-18T06:40:17.084Z,727.16
2017-03-18T06:41:17.067Z,727
2017-03-18T06:42:17.043Z,727
2017-03-18T06:43:17.022Z,727.23
2017-03-18T06:44:17.006Z,727.31
2017-03-18T06:45:16.981Z,727.05
2017-03-18T06:46:16.961Z,726.92
2017-03-18T06:47:16.940Z,727.32
2017-03-18T06:48:16.920Z,727.16
2017-03-18T06:49:16.901Z,726.59
2017-03-18T06:50:16.884Z,726.6
2017-03-18T06:51:16.860Z,726.95
2017-03-18T06:52:16.844Z,727.28
2017-03-18T06:53:16.822Z,727.42
2017-03-18T06:54:16.802Z,726.9
2017-03-18T06:55:16.778Z,726.8
2017-03-18T06:56:16.759Z,726.92
2017-03-18T06:57:16.743Z,727.01
2017-03-18T06:58:16.725Z,726.53
2017-03-18T06:59:16.699Z,727.01
2017-03-18T07:00:16.678Z,727.39
2017-03-18T07:01:16.663Z,726.89
2017-03-18T07:02:16.636Z,726.49
2017-03-18T07:03:16.619Z,727.23
2017-03-18T07:04:16.600Z,726.53
2017-03-18T07:05:16.579Z,726.32
2017-03-18T07:06:16.556Z,727.23
2017-03-18T07:07:16.535Z,726.55
2017-03-18T07:08:16.520Z,726.56
2017-03-18T07:09:16.499Z,726.82
2017-03-18T07:10:16.476Z,727.06
2017-03-18T07:11:16.458Z,727.25
2017-03-18T07:12:16.434Z,726.35
2017-03-18T07:13:16.415Z,726.47
2017-03-18T07:14:16.399Z,726.85
2017-03-18T07:15:16.374Z,726.79
2017-03-18T07:16:16.355Z,726.65
2017-03-18T07:17:16.339Z,727.18
2017-03-18T07:18:16.318Z,726.98
2017-03-18T07:19:16.296Z,727.13
2017-03-18T07:20:16.279Z,726.41
2017-03-18T07:21:16.259Z,726.62
2017-03-18T07:22:16.239Z,726.86
2017-03-18T07:23:16.217Z,727.24
2017-03-18T07:24:16.195Z,726.93
2017-03-18T07:25:16.175Z,727.57
2017-03-18T07:26:16.155Z,726.75
2017-03-18T07:27:16.139Z,726.11
2017-03-18T07:28:16.117Z,727.18
2017-03-18T07:29:16.095Z,726.49
2017-03-18T07:30:16.083Z,726.85
2017-03-18T07:31:16.055Z,727
2017-03-18T07:32:16.035Z,726.97
2017-03-18T07:33:16.019Z,727.46
2017-03-18T07:34:16.000Z,726.62
2017-03-18T07:35:15.975Z,726.29
2017-03-18T07:36:15.960Z,727.04
2017-03-18T07:37:15.935Z,727
2017-03-18T07:38:15.920Z,727
2017-03-18T07:39:15.897Z,726.66
2017-03-18T07:40:15.875Z,727.75
2017-03-18T07:41:15.859Z,727.37
2017-03-18T07:42:15.840Z,726.55
2017-03-18T07:43:15.821Z,726.7
2017-03-18T07:44:15.795Z,726.2
2017-03-18T07:45:15.775Z,726.91
2017-03-18T07:46:15.760Z,726.87
2017-03-18T07:47:15.740Z,727.39
2017-03-18T07:48:15.727Z,726.49
2017-03-18T07:49:15.705Z,727.53
2017-03-18T07:50:15.680Z,726.44
2017-03-18T07:51:15.660Z,727.26
2017-03-18T07:52:15.640Z,727.02
2017-03-18T07:53:15.620Z,726.72
2017-03-18T07:54:15.601Z,727.15
2017-03-18T07:55:15.575Z,726.88
2017-03-18T07:56:15.560Z,726.89
2017-03-18T07:57:15.536Z,726.88
2017-03-18T07:58:15.518Z,727.38
2017-03-18T07:59:15.496Z,726.69
2017-03-18T08:00:15.480Z,726.99
2017-03-18T08:01:15.460Z,727.71
2017-03-18T08:02:15.441Z,727.28
2017-03-18T08:03:15.418Z,726.9
2017-03-18T08:04:15.401Z,727.1
2017-03-18T08:05:15.378Z,726.67
2017-03-18T08:06:15.361Z,726.91
2017-03-18T08:07:15.342Z,727.19
2017-03-18T08:08:15.323Z,727.1
2017-03-18T08:09:15.299Z,726.7
2017-03-18T08:10:15.281Z,727.66
2017-03-18T08:11:15.257Z,727.25
2017-03-18T08:12:15.238Z,727.1
2017-03-18T08:13:15.222Z,727.25
2017-03-18T08:14:15.203Z,727.09
2017-03-18T08:15:15.178Z,727.26
2017-03-18T08:16:15.166Z,727.44
2017-03-18T08:17:15.143Z,727.32
2017-03-18T08:18:15.119Z,726.74
2017-03-18T08:19:15.104Z,727.08
2017-03-18T08:20:15.080Z,727.14
2017-03-18T08:21:15.061Z,727.28
2017-03-18T08:22:15.048Z,726.2
2017-03-18T08:23:15.025Z,727.05
2017-03-18T08:24:15.005Z,727.11
2017-03-18T08:25:14.982Z,727.21
2017-03-18T08:26:14.961Z,727.08
2017-03-18T08:27:14.946Z,727.12
2017-03-18T08:28:14.922Z,726.86
2017-03-18T08:29:14.904Z,726.56
2017-03-18T08:30:14.887Z,726.94
2017-03-18T08:31:14.864Z,727.07
2017-03-18T08:32:14.848Z,727.02
2017-03-18T08:33:14.825Z,727.13
2017-03-18T08:34:14.809Z,726.83
2017-03-18T08:35:14.785Z,726.81
2017-03-18T08:36:14.766Z,727.45
2017-03-18T08:37:14.751Z,726.92
2017-03-18T08:38:14.731Z,727.03
2017-03-18T08:39:14.711Z,726.54
2017-03-18T08:40:14.687Z,727.56
2017-03-18T08:41:14.674Z,726.79
2017-03-18T08:42:14.648Z,727.18
2017-03-18T08:43:14.633Z,726.9
2017-03-18T08:44:14.613Z,727.15
2017-03-18T08:45:14.589Z,726.9
2017-03-18T08:46:14.573Z,727.12
2017-03-18T08:47:14.550Z,726.76
2017-03-18T08:48:14.534Z,727.11
2017-03-18T08:49:14.511Z,726.43
2017-03-18T08:50:14.495Z,726.74
2017-03-18T08:51:14.475Z,726.88
2017-03-18T08:52:14.452Z,727.25
2017-03-18T08:53:14.432Z,726.97
2017-03-18T08:54:14.413Z,726.47
2017-03-18T08:55:14.395Z,726.62
2017-03-18T08:56:14.377Z,727.04
2017-03-18T08:57:14.359Z,726.89
2017-03-18T08:58:14.338Z,727.24
2017-03-18T08:59:14.316Z,727.39
2017-03-18T09:00:14.298Z,727.07
2017-03-18T09:01:14.281Z,726.34
2017-03-18T09:02:14.264Z,727.2
2017-03-18T09:03:14.241Z,727.5
2017-03-18T09:04:14.222Z,726.97
2017-03-18T09:05:14.300Z,726.53
2017-03-18T09:06:14.186Z,727.03
2017-03-18T09:07:14.162Z,727.11
2017-03-18T09:08:14.143Z,726.41
2017-03-18T09:09:14.129Z,727.21
2017-03-18T09:10:14.106Z,727.1
2017-03-18T09:11:14.087Z,726.33
2017-03-18T09:12:14.070Z,726.54
2017-03-18T09:13:14.052Z,726.67
2017-03-18T09:14:14.033Z,726.5
2017-03-18T09:15:14.009Z,726.33
2017-03-18T09:16:13.990Z,726.03
2017-03-18T09:17:13.970Z,726.87
2017-03-18T09:18:13.955Z,727.15
2017-03-18T09:19:13.936Z,726.82
2017-03-18T09:20:13.912Z,726.99
2017-03-18T09:21:13.897Z,726.71
2017-03-18T09:22:13.878Z,727.06
2017-03-18T09:23:13.856Z,727.27
2017-03-18T09:24:13.836Z,727.52
2017-03-18T09:25:13.818Z,726.38
2017-03-18T09:26:13.801Z,726.69
2017-03-18T09:27:13.785Z,726.64
2017-03-18T09:28:13.765Z,726.71
2017-03-18T09:29:13.741Z,726.79
2017-03-18T09:30:13.725Z,727.75
2017-03-18T09:31:13.702Z,726.58
2017-03-18T09:32:13.688Z,726.27
2017-03-18T09:33:13.669Z,727.44
2017-03-18T09:34:13.646Z,726.6
2017-03-18T09:35:13.635Z,727.18
2017-03-18T09:36:13.611Z,726.58
2017-03-18T09:37:13.592Z,726.77
2017-03-18T09:38:13.569Z,727.1
2017-03-18T09:39:13.551Z,726.96
2017-03-18T09:40:13.530Z,726.01
2017-03-18T09:41:13.515Z,726.36
2017-03-18T09:42:13.492Z,726.68
2017-03-18T09:43:13.478Z,726.55
2017-03-18T09:44:13.456Z,727.09
2017-03-18T09:45:13.434Z,726.5
2017-03-18T09:46:13.420Z,726.97
2017-03-18T09:47:13.396Z,726.91
2017-03-18T09:48:13.378Z,726.71
2017-03-18T09:49:13.363Z,727.03
2017-03-18T09:50:13.346Z,726.97
2017-03-18T09:51:13.321Z,726.01
2017-03-18T09:52:13.307Z,726.92
2017-03-18T09:53:13.283Z,726.47
2017-03-18T09:54:13.268Z,727.15
2017-03-18T09:55:13.246Z,726.99
2017-03-18T09:56:13.225Z,726.24
2017-03-18T09:57:13.206Z,726.76
2017-03-18T09:58:13.188Z,726.91
2017-03-18T09:59:13.171Z,726.8
2017-03-18T10:00:13.150Z,726.49
2017-03-18T10:01:13.132Z,726.67
2017-03-18T10:02:13.117Z,726.37
2017-03-18T10:03:13.094Z,726.04
2017-03-18T10:04:13.075Z,726.64
2017-03-18T10:05:13.056Z,726.96
2017-03-18T10:06:13.042Z,726.28
2017-03-18T10:07:13.025Z,727.14
2017-03-18T10:08:13.000Z,726.58
2017-03-18T10:09:12.982Z,726.6
2017-03-18T10:10:12.962Z,726.94
2017-03-18T10:11:12.944Z,726.93
2017-03-18T10:12:12.926Z,727.38
2017-03-18T10:13:12.912Z,726.72
2017-03-18T10:14:12.889Z,727.3
2017-03-18T10:15:12.870Z,727.21
2017-03-18T10:16:12.853Z,726.65
2017-03-18T10:17:12.836Z,726.12
2017-03-18T10:18:12.814Z,726.58
2017-03-18T10:19:12.800Z,726.69
2017-03-18T10:20:12.776Z,726.85
2017-03-18T10:21:12.762Z,726.64
2017-03-18T10:22:12.764Z,726.73
2017-03-18T10:23:12.720Z,726.58
2017-03-18T10:24:12.707Z,726.8
2017-03-18T10:25:12.682Z,727.03
2017-03-18T10:26:12.668Z,726.8
2017-03-18T10:27:12.649Z,726.7
2017-03-18T10:28:12.628Z,726.8
2017-03-18T10:29:12.610Z,725.99
2017-03-18T10:30:12.594Z,726.78
2017-03-18T10:31:12.577Z,726.75
2017-03-18T10:32:12.554Z,726.85
2017-03-18T10:33:12.536Z,726.6
2017-03-18T10:34:12.522Z,726.9
2017-03-18T10:35:12.504Z,726.7
2017-03-18T10:36:12.484Z,726.91
2017-03-18T10:37:12.466Z,726.75
2017-03-18T10:38:12.445Z,726.67
2017-03-18T10:39:12.426Z,726.95
2017-03-18T10:40:12.410Z,726.71
2017-03-18T10:41:12.391Z,726.28
2017-03-18T10:42:12.373Z,726.89
2017-03-18T10:43:12.350Z,726.89
2017-03-18T10:44:12.332Z,726.82
2017-03-18T10:45:12.317Z,726.79
2017-03-18T10:46:12.295Z,726.71
2017-03-18T10:47:12.275Z,726.91
2017-03-18T10:48:12.261Z,726.66
2017-03-18T10:49:12.238Z,726.74
2017-03-18T10:50:12.220Z,726.62
2017-03-18T10:51:12.202Z,726.75
2017-03-18T10:52:12.188Z,726.89
2017-03-18T10:53:12.168Z,727.18
2017-03-18T10:54:12.150Z,726.89
2017-03-18T10:55:12.132Z,727.22
2017-03-18T10:56:12.113Z,726.31
2017-03-18T10:57:12.093Z,726.74
2017-03-18T10:58:12.072Z,726.78
2017-03-18T10:59:12.053Z,726.86
2017-03-18T11:00:12.035Z,727.26
2017-03-18T11:01:12.015Z,726.66
2017-03-18T11:02:12.001Z,726.76
2017-03-18T11:03:11.984Z,727.11
2017-03-18T11:04:11.965Z,727.12
2017-03-18T11:05:11.943Z,726.93
2017-03-18T11:06:11.924Z,727.02
2017-03-18T11:07:11.905Z,727.05
2017-03-18T11:08:11.891Z,727.14
2017-03-18T11:09:11.867Z,727.14
2017-03-18T11:10:11.867Z,727.19
2017-03-18T11:11:11.837Z,726.71
2017-03-18T11:12:11.816Z,726.91
2017-03-18T11:13:11.797Z,726.91
2017-03-18T11:14:11.779Z,727.2
2017-03-18T11:15:11.757Z,726.79
2017-03-18T11:16:11.736Z,727.29
2017-03-18T11:17:11.722Z,727.17
2017-03-18T11:18:11.704Z,727
2017-03-18T11:19:11.686Z,726.79
2017-03-18T11:20:11.666Z,727.14
2017-03-18T11:21:11.645Z,726.95
2017-03-18T11:22:11.629Z,727.32
2017-03-18T11:23:11.607Z,727.23
2017-03-18T11:24:11.591Z,727.22
2017-03-18T11:25:11.570Z,727.01
2017-03-18T11:26:11.554Z,727.28
2017-03-18T11:27:11.531Z,727.08
2017-03-18T11:28:11.517Z,727.16
2017-03-18T11:29:11.494Z,727.35
2017-03-18T11:30:11.478Z,727.48
2017-03-18T11:31:11.461Z,727.15
2017-03-18T11:32:11.442Z,727.64
2017-03-18T11:33:11.423Z,727.57
2017-03-18T11:34:11.404Z,727.55
2017-03-18T11:35:11.385Z,726.7
2017-03-18T11:36:11.363Z,727.16
2017-03-18T11:37:11.349Z,727.53
2017-03-18T11:38:11.330Z,727.49
2017-03-18T11:39:11.311Z,727.64
2017-03-18T11:40:11.289Z,727.75
2017-03-18T11:41:11.269Z,727.23
2017-03-18T11:42:11.251Z,727.46
2017-03-18T11:43:11.233Z,727.24
2017-03-18T11:44:11.214Z,727.49
2017-03-18T11:45:11.195Z,727.41
2017-03-18T11:46:11.181Z,727.08
2017-03-18T11:47:11.164Z,727.43
2017-03-18T11:48:11.145Z,727.42
2017-03-18T11:49:11.122Z,727.56
2017-03-18T11:50:11.106Z,727.29
2017-03-18T11:51:11.085Z,727.52
2017-03-18T11:52:11.066Z,727.35
2017-03-18T11:53:11.051Z,727.34
2017-03-18T11:54:11.027Z,727.39
2017-03-18T11:55:11.014Z,727.39
2017-03-18T11:56:10.989Z,727.26
2017-03-18T11:57:10.971Z,727.5
2017-03-18T11:58:10.953Z,727.59
2017-03-18T11:59:10.940Z,727.67
2017-03-18T12:00:10.916Z,727.57
2017-03-18T12:01:10.900Z,727.8
2017-03-18T12:02:10.882Z,727.73
2017-03-18T12:03:10.862Z,727.61
2017-03-18T12:04:10.844Z,727.71
2017-03-18T12:05:10.821Z,727.91
2017-03-18T12:06:10.807Z,727.72
2017-03-18T12:07:10.784Z,727.35
2017-03-18T12:08:10.766Z,727.03
2017-03-18T12:09:10.752Z,727.23
2017-03-18T12:10:10.727Z,727.12
2017-03-18T12:11:10.708Z,727.1
2017-03-18T12:12:10.689Z,726.97
2017-03-18T12:13:10.674Z,727.41
2017-03-18T12:14:10.654Z,727.63
2017-03-18T12:15:10.632Z,727.32
2017-03-18T12:16:10.612Z,727.09
2017-03-18T12:17:10.597Z,727.18
2017-03-18T12:18:10.573Z,727.15
2017-03-18T12:19:10.559Z,728.06
2017-03-18T12:20:10.537Z,727.53
2017-03-18T12:21:10.520Z,727
2017-03-18T12:22:10.496Z,726.54
2017-03-18T12:23:10.477Z,726.68
2017-03-18T12:24:10.462Z,727.09
2017-03-18T12:25:10.439Z,726.62
2017-03-18T12:26:10.418Z,726.57
2017-03-18T12:27:10.403Z,727.14
2017-03-18T12:28:10.384Z,726.21
2017-03-18T12:29:10.364Z,726.93
2017-03-18T12:30:10.342Z,727.14
2017-03-18T12:31:10.321Z,726.54
2017-03-18T12:32:10.306Z,726.78
2017-03-18T12:33:10.286Z,726.48